createdAt,value
2023-09-17T00:02:21.629Z,15.00
2023-09-17T00:04:48.429Z,13.20
2023-09-17T00:07:15.138Z,13.00
2023-09-17T00:09:41.707Z,14.00
2023-09-17T00:12:08.750Z,14.60
2023-09-17T00:14:35.424Z,13.20
2023-09-17T00:17:02.036Z,15.80
2023-09-17T00:19:28.634Z,17.75
2023-09-17T00:21:55.292Z,13.00
2023-09-17T00:24:22.483Z,14.20
2023-09-17T00:26:49.109Z,13.25
2023-09-17T00:29:15.853Z,13.00
2023-09-17T00:31:42.390Z,12.80
2023-09-17T00:34:08.955Z,15.00
2023-09-17T00:36:35.569Z,12.25
2023-09-17T00:39:02.099Z,16.20
2023-09-17T00:41:28.623Z,14.25
2023-09-17T00:43:56.491Z,12.20
2023-09-17T00:46:23.145Z,12.00
2023-09-17T00:48:50.283Z,12.80
2023-09-17T00:51:16.898Z,14.00
2023-09-17T00:53:43.714Z,15.00
2023-09-17T00:56:10.495Z,17.40
2023-09-17T00:58:37.517Z,16.00
2023-09-17T01:01:05.474Z,16.40
2023-09-17T01:03:32.993Z,18.00
2023-09-17T01:06:02.186Z,19.25
2023-09-17T01:08:28.977Z,15.00
2023-09-17T01:10:56.330Z,15.00
2023-09-17T01:13:24.960Z,14.20
2023-09-17T01:15:55.491Z,18.25
2023-09-17T01:18:23.613Z,19.25
2023-09-17T01:20:51.814Z,15.80
2023-09-17T01:23:26.521Z,16.00
2023-09-17T01:25:56.177Z,17.50
2023-09-17T01:28:23.677Z,14.50
2023-09-17T01:30:50.325Z,20.40
2023-09-17T01:33:16.992Z,17.50
2023-09-17T01:36:10.223Z,11.40
2023-09-17T01:38:40.269Z,15.00
2023-09-17T01:41:08.433Z,17.60
2023-09-17T01:43:35.875Z,16.60
2023-09-17T01:46:02.627Z,17.00
2023-09-17T01:48:29.820Z,21.00
2023-09-17T01:50:56.388Z,15.20
2023-09-17T01:53:23.436Z,16.50
2023-09-17T01:55:54.438Z,17.20
2023-09-17T01:58:23.359Z,12.00
2023-09-17T02:00:54.191Z,16.00
2023-09-17T02:03:21.170Z,18.40
2023-09-17T02:05:47.985Z,18.75
2023-09-17T02:08:14.552Z,18.00
2023-09-17T02:10:41.994Z,13.50
2023-09-17T02:13:08.693Z,14.00
2023-09-17T02:15:35.294Z,14.00
2023-09-17T02:18:02.110Z,16.00
2023-09-17T02:20:28.666Z,14.50
2023-09-17T02:22:55.296Z,15.00
2023-09-17T02:25:21.949Z,16.00
2023-09-17T02:27:48.652Z,15.60
2023-09-17T02:30:15.458Z,20.00
2023-09-17T02:32:42.276Z,17.25
2023-09-17T02:35:09.358Z,14.25
2023-09-17T02:37:36.322Z,14.40
2023-09-17T02:40:10.864Z,16.75
2023-09-17T02:42:38.537Z,19.75
2023-09-17T02:45:06.609Z,17.00
2023-09-17T02:47:35.311Z,23.80
2023-09-17T02:50:02.221Z,12.60
2023-09-17T02:52:29.145Z,18.50
2023-09-17T02:54:56.027Z,19.60
2023-09-17T02:57:22.908Z,15.20
2023-09-17T02:59:50.414Z,18.40
2023-09-17T03:02:19.808Z,23.40
2023-09-17T03:04:46.498Z,16.00
2023-09-17T03:07:13.063Z,20.33
2023-09-17T03:09:39.670Z,18.00
2023-09-17T03:12:07.856Z,28.40
2023-09-17T03:14:34.507Z,18.40
2023-09-17T03:17:01.122Z,16.20
2023-09-17T03:19:27.910Z,18.50
2023-09-17T03:21:55.141Z,16.60
2023-09-17T03:24:21.845Z,20.75
2023-09-17T03:26:48.377Z,21.60
2023-09-17T03:29:15.036Z,19.40
2023-09-17T03:31:43.048Z,21.00
2023-09-17T03:34:09.660Z,19.80
2023-09-17T03:36:39.342Z,23.00
2023-09-17T03:39:10.451Z,19.25
2023-09-17T03:41:41.966Z,21.00
2023-09-17T03:44:11.397Z,23.50
2023-09-17T03:46:39.709Z,16.67
2023-09-17T03:49:07.396Z,21.25
2023-09-17T03:51:34.174Z,16.00
2023-09-17T03:54:01.022Z,20.80
2023-09-17T03:56:28.188Z,13.80
2023-09-17T03:58:54.809Z,22.00
2023-09-17T04:01:22.198Z,18.00
2023-09-17T04:03:50.497Z,20.00
2023-09-17T04:06:17.666Z,18.00
2023-09-17T04:08:44.295Z,19.80
2023-09-17T04:11:17.175Z,20.75
2023-09-17T04:13:44.501Z,18.40
2023-09-17T04:16:11.259Z,19.00
2023-09-17T04:18:37.941Z,16.25
2023-09-17T04:21:04.556Z,20.50
2023-09-17T04:23:31.081Z,23.20
2023-09-17T04:25:57.670Z,16.50
2023-09-17T04:28:24.693Z,20.00
2023-09-17T04:30:51.305Z,17.80
2023-09-17T04:33:18.102Z,19.40
2023-09-17T04:35:44.691Z,23.80
2023-09-17T04:38:11.532Z,17.40
2023-09-17T04:40:38.177Z,14.00
2023-09-17T04:43:05.261Z,18.00
2023-09-17T04:45:34.112Z,16.40
2023-09-17T04:48:00.845Z,26.00
2023-09-17T04:50:27.577Z,17.75
2023-09-17T04:52:54.155Z,18.00
2023-09-17T04:55:20.951Z,17.50
2023-09-17T04:57:47.512Z,19.25
2023-09-17T05:00:14.272Z,18.40
2023-09-17T05:02:41.031Z,17.25
2023-09-17T05:05:08.197Z,17.25
2023-09-17T05:07:34.827Z,18.75
2023-09-17T05:10:01.421Z,24.33
2023-09-17T05:12:27.955Z,16.20
2023-09-17T05:14:54.553Z,17.75
2023-09-17T05:17:21.193Z,19.00
2023-09-17T05:19:47.770Z,23.00
2023-09-17T05:22:14.315Z,18.00
2023-09-17T05:24:40.854Z,16.00
2023-09-17T05:27:07.436Z,19.60
2023-09-17T05:29:34.060Z,25.25
2023-09-17T05:32:00.698Z,18.25
2023-09-17T05:34:27.509Z,20.80
2023-09-17T05:36:54.089Z,20.00
2023-09-17T05:39:20.616Z,20.20
2023-09-17T05:41:47.167Z,14.00
2023-09-17T05:44:15.753Z,20.25
2023-09-17T05:46:42.371Z,18.60
2023-09-17T05:49:10.170Z,17.50
2023-09-17T05:51:36.719Z,19.50
2023-09-17T05:54:03.366Z,20.50
2023-09-17T05:56:29.999Z,26.60
2023-09-17T05:58:56.572Z,29.60
2023-09-17T06:01:23.629Z,17.80
2023-09-17T06:03:50.535Z,22.50
2023-09-17T06:06:17.421Z,21.00
2023-09-17T06:08:44.234Z,20.00
2023-09-17T06:11:10.862Z,18.00
2023-09-17T06:13:37.619Z,22.40
2023-09-17T06:16:04.891Z,18.33
2023-09-17T06:18:34.030Z,26.80
2023-09-17T06:21:00.976Z,19.25
2023-09-17T06:23:29.065Z,23.60
2023-09-17T06:25:55.790Z,20.20
2023-09-17T06:28:22.564Z,18.00
2023-09-17T06:30:49.957Z,23.75
2023-09-17T06:33:16.996Z,19.80
2023-09-17T06:35:43.719Z,18.00
2023-09-17T06:38:10.792Z,21.00
2023-09-17T06:40:37.585Z,24.80
2023-09-17T06:43:04.305Z,21.40
2023-09-17T06:45:31.264Z,24.00
2023-09-17T06:47:57.992Z,23.20
2023-09-17T06:50:24.872Z,24.60
2023-09-17T06:52:51.444Z,17.80
2023-09-17T06:55:18.090Z,23.00
2023-09-17T06:57:44.685Z,19.00
2023-09-17T07:00:11.725Z,20.40
2023-09-17T07:02:38.362Z,22.20
2023-09-17T07:05:09.100Z,22.50
2023-09-17T07:07:35.939Z,15.75
2023-09-17T07:10:03.629Z,19.00
2023-09-17T07:12:30.158Z,22.50
2023-09-17T07:14:56.761Z,17.60
2023-09-17T07:17:23.427Z,19.00
2023-09-17T07:19:50.046Z,18.40
2023-09-17T07:22:17.100Z,18.00
2023-09-17T07:24:43.893Z,17.60
2023-09-17T07:27:10.387Z,20.60
2023-09-17T07:29:36.930Z,19.00
2023-09-17T07:32:03.619Z,16.00
2023-09-17T07:34:31.848Z,19.00
2023-09-17T07:37:01.222Z,18.50
2023-09-17T07:39:27.989Z,14.60
2023-09-17T07:41:54.577Z,21.25
2023-09-17T07:44:21.523Z,17.00
2023-09-17T07:46:48.357Z,16.25
2023-09-17T07:49:14.885Z,16.00
2023-09-17T07:51:41.462Z,16.00
2023-09-17T07:54:07.997Z,15.40
2023-09-17T07:56:34.518Z,18.00
2023-09-17T07:59:01.075Z,19.00
2023-09-17T08:01:28.476Z,17.00
2023-09-17T08:03:55.602Z,17.75
2023-09-17T08:06:22.515Z,16.80
2023-09-17T08:08:49.978Z,16.00
2023-09-17T08:11:17.640Z,18.50
2023-09-17T08:13:44.470Z,16.40
2023-09-17T08:16:11.083Z,20.60
2023-09-17T08:18:37.672Z,16.00
2023-09-17T08:21:05.323Z,14.60
2023-09-17T08:23:32.224Z,15.25
2023-09-17T08:25:58.884Z,16.60
2023-09-17T08:28:25.586Z,15.60
2023-09-17T08:30:52.168Z,13.67
2023-09-17T08:33:18.736Z,17.00
2023-09-17T08:35:45.451Z,16.50
2023-09-17T08:38:12.006Z,15.75
2023-09-17T08:40:39.989Z,17.80
2023-09-17T08:43:06.946Z,17.40
2023-09-17T08:45:33.562Z,18.00
2023-09-17T08:48:00.302Z,19.00
2023-09-17T08:50:30.029Z,24.50
2023-09-17T08:53:01.507Z,16.60
2023-09-17T08:55:28.286Z,28.40
2023-09-17T08:57:58.742Z,20.00
2023-09-17T09:00:26.637Z,20.60
2023-09-17T09:02:56.280Z,24.00
2023-09-17T09:05:27.720Z,36.50
2023-09-17T09:07:57.070Z,21.00
2023-09-17T09:10:23.992Z,32.25
2023-09-17T09:12:51.466Z,17.40
2023-09-17T09:15:18.050Z,42.25
2023-09-17T09:17:44.767Z,43.60
2023-09-17T09:20:12.203Z,22.50
2023-09-17T09:22:39.120Z,40.00
2023-09-17T09:25:07.474Z,47.40
2023-09-17T09:27:34.035Z,46.00
2023-09-17T09:30:01.131Z,49.00
2023-09-17T09:32:27.723Z,42.00
2023-09-17T09:34:54.399Z,34.75
2023-09-17T09:37:24.321Z,17.00
2023-09-17T09:39:51.073Z,15.25
2023-09-17T09:42:18.201Z,16.33
2023-09-17T09:44:45.392Z,19.25
2023-09-17T09:47:14.285Z,19.40
2023-09-17T09:49:42.101Z,16.40
2023-09-17T09:52:08.867Z,17.00
2023-09-17T09:54:38.130Z,23.20
2023-09-17T09:57:06.355Z,20.00
2023-09-17T09:59:36.273Z,40.20
2023-09-17T10:02:03.757Z,27.00
2023-09-17T10:04:30.492Z,22.00
2023-09-17T10:06:57.831Z,17.75
2023-09-17T10:09:26.647Z,19.80
2023-09-17T10:11:54.039Z,17.20
2023-09-17T10:14:25.718Z,25.40
2023-09-17T10:16:53.328Z,23.25
2023-09-17T10:19:22.536Z,19.00
2023-09-17T10:21:50.083Z,19.75
2023-09-17T10:24:18.944Z,23.00
2023-09-17T10:26:46.558Z,18.00
2023-09-17T10:29:14.238Z,18.40
2023-09-17T10:31:42.547Z,17.75
2023-09-17T10:34:14.272Z,16.00
2023-09-17T10:36:42.888Z,22.50
2023-09-17T10:39:11.516Z,22.75
2023-09-17T10:41:38.525Z,25.00
2023-09-17T10:44:05.862Z,23.50
2023-09-17T10:46:33.285Z,18.00
2023-09-17T10:49:00.147Z,19.60
2023-09-17T10:51:28.230Z,23.80
2023-09-17T10:53:55.818Z,28.25
2023-09-17T10:56:22.885Z,22.67
2023-09-17T10:58:53.209Z,30.75
2023-09-17T11:01:22.442Z,31.33
2023-09-17T11:03:53.463Z,17.80
2023-09-17T11:06:25.489Z,17.75
2023-09-17T11:08:54.060Z,15.00
2023-09-17T11:11:22.260Z,24.75
2023-09-17T11:13:49.361Z,18.50
2023-09-17T11:16:17.034Z,28.00
2023-09-17T11:19:02.922Z,23.20
2023-09-17T11:21:29.866Z,42.75
2023-09-17T11:23:57.006Z,40.20
2023-09-17T11:26:27.898Z,31.33
2023-09-17T11:28:58.366Z,37.00
2023-09-17T11:31:28.857Z,39.40
2023-09-17T11:33:59.415Z,20.80
2023-09-17T11:36:27.115Z,32.40
2023-09-17T11:38:54.317Z,30.00
2023-09-17T11:41:27.650Z,30.75
2023-09-17T11:43:54.665Z,21.60
2023-09-17T11:46:22.166Z,27.75
2023-09-17T11:48:48.770Z,42.75
2023-09-17T11:51:22.875Z,50.75
2023-09-17T11:53:59.748Z,51.25
2023-09-17T11:56:28.405Z,48.00
2023-09-17T11:58:59.507Z,50.00
2023-09-17T12:01:27.324Z,32.80
2023-09-17T12:03:55.084Z,31.50
2023-09-17T12:06:22.590Z,31.00
2023-09-17T12:08:49.993Z,49.60
2023-09-17T12:11:23.689Z,25.00
2023-09-17T12:13:55.127Z,26.33
2023-09-17T12:16:25.690Z,37.40
2023-09-17T12:19:03.807Z,42.60
2023-09-17T12:21:42.413Z,25.00
2023-09-17T12:24:19.263Z,32.00
2023-09-17T12:27:10.676Z,26.00
2023-09-17T12:29:38.029Z,23.40
2023-09-17T12:32:05.284Z,22.00
2023-09-17T12:34:34.576Z,25.60
2023-09-17T12:37:01.226Z,25.00
2023-09-17T12:39:27.963Z,24.25
2023-09-17T12:41:54.539Z,14.50
2023-09-17T12:44:21.373Z,14.40
2023-09-17T12:46:48.369Z,20.00
2023-09-17T12:49:15.237Z,25.40
2023-09-17T12:51:41.889Z,19.33
2023-09-17T12:54:09.003Z,15.20
2023-09-17T12:56:37.386Z,24.00
2023-09-17T12:59:05.204Z,22.25
2023-09-17T13:01:32.117Z,18.50
2023-09-17T13:04:06.186Z,14.00
2023-09-17T13:06:35.333Z,21.50
2023-09-17T13:09:05.772Z,16.20
2023-09-17T13:11:32.649Z,25.50
2023-09-17T13:13:59.988Z,21.00
2023-09-17T13:16:26.601Z,24.25
2023-09-17T13:18:53.267Z,15.25
2023-09-17T13:21:20.360Z,19.75
2023-09-17T13:23:49.028Z,27.20
2023-09-17T13:26:15.973Z,21.80
2023-09-17T13:28:43.200Z,17.25
2023-09-17T13:31:10.745Z,25.00
2023-09-17T13:33:39.395Z,20.75
2023-09-17T13:36:08.029Z,29.00
2023-09-17T13:38:35.255Z,22.00
2023-09-17T13:41:02.500Z,31.20
2023-09-17T13:43:29.508Z,21.75
2023-09-17T13:45:57.029Z,21.80
2023-09-17T13:48:24.370Z,28.00
2023-09-17T13:50:51.411Z,27.40
2023-09-17T13:53:18.839Z,21.60
2023-09-17T13:55:45.984Z,20.33
2023-09-17T13:58:13.605Z,22.20
2023-09-17T14:00:40.318Z,28.25
2023-09-17T14:03:25.090Z,22.50
2023-09-17T14:05:51.822Z,26.40
2023-09-17T14:08:18.418Z,25.25
2023-09-17T14:10:45.388Z,39.25
2023-09-17T14:13:12.069Z,34.50
2023-09-17T14:15:41.925Z,55.75
2023-09-17T14:18:09.001Z,34.50
2023-09-17T14:20:36.121Z,50.60
2023-09-17T14:23:04.469Z,37.20
2023-09-17T14:25:34.431Z,25.80
2023-09-17T14:28:01.581Z,46.50
2023-09-17T14:30:29.357Z,44.75
2023-09-17T14:32:57.146Z,54.60
2023-09-17T14:35:25.473Z,40.33
2023-09-17T14:37:52.318Z,21.20
2023-09-17T14:40:18.957Z,38.00
2023-09-17T14:42:45.675Z,21.75
2023-09-17T14:45:12.280Z,29.40
2023-09-17T14:47:40.806Z,40.20
2023-09-17T14:50:11.573Z,25.75
2023-09-17T14:52:38.478Z,20.25
2023-09-17T14:55:05.533Z,23.40
2023-09-17T14:57:35.115Z,37.20
2023-09-17T15:00:02.086Z,36.50
2023-09-17T15:02:29.909Z,31.00
2023-09-17T15:04:57.507Z,28.50
2023-09-17T15:07:24.638Z,46.25
2023-09-17T15:09:51.716Z,41.40
2023-09-17T15:12:18.720Z,22.25
2023-09-17T15:14:45.915Z,20.00
2023-09-17T15:17:12.715Z,12.20
2023-09-17T15:19:39.580Z,20.00
2023-09-17T15:22:06.858Z,16.25
2023-09-17T15:24:33.382Z,14.75
2023-09-17T15:26:59.983Z,15.00
2023-09-17T15:29:26.817Z,17.20
2023-09-17T15:31:56.214Z,23.20
2023-09-17T15:34:23.685Z,27.60
2023-09-17T15:36:50.467Z,31.50
2023-09-17T15:39:17.013Z,20.50
2023-09-17T15:41:43.596Z,19.60
2023-09-17T15:44:10.989Z,18.75
2023-09-17T15:46:40.779Z,27.50
2023-09-17T15:49:07.663Z,36.33
2023-09-17T15:51:34.254Z,21.20
2023-09-17T15:54:00.798Z,19.75
2023-09-17T15:56:27.334Z,19.50
2023-09-17T15:58:54.123Z,23.25
2023-09-17T16:01:20.991Z,21.20
2023-09-17T16:03:48.984Z,22.80
2023-09-17T16:06:18.007Z,24.25
2023-09-17T16:08:44.650Z,37.00
2023-09-17T16:11:11.342Z,20.00
2023-09-17T16:13:37.875Z,17.50
2023-09-17T16:16:04.473Z,32.20
2023-09-17T16:18:31.173Z,27.00
2023-09-17T16:20:58.154Z,21.25
2023-09-17T16:23:24.717Z,26.80
2023-09-17T16:25:51.362Z,41.20
2023-09-17T16:28:19.323Z,19.50
2023-09-17T16:30:45.922Z,22.60
2023-09-17T16:33:13.004Z,21.60
2023-09-17T16:35:39.672Z,35.00
2023-09-17T16:38:06.261Z,40.75
2023-09-17T16:40:32.880Z,31.50
2023-09-17T16:43:09.476Z,44.40
2023-09-17T16:45:37.820Z,48.60
2023-09-17T16:48:05.175Z,31.00
2023-09-17T16:50:33.020Z,48.60
2023-09-17T16:53:00.136Z,45.75
2023-09-17T16:55:27.456Z,28.25
2023-09-17T16:57:54.043Z,52.60
2023-09-17T17:00:22.972Z,24.20
2023-09-17T17:02:49.655Z,46.50
2023-09-17T17:05:16.385Z,25.00
2023-09-17T17:07:43.257Z,47.00
2023-09-17T17:10:10.374Z,48.50
2023-09-17T17:12:37.602Z,26.50
2023-09-17T17:15:04.639Z,47.75
2023-09-17T17:17:31.754Z,35.60
2023-09-17T17:19:58.435Z,37.00
2023-09-17T17:22:25.553Z,53.20
2023-09-17T17:24:52.253Z,32.00
2023-09-17T17:27:19.075Z,57.25
2023-09-17T17:29:47.380Z,19.40
2023-09-17T17:32:14.457Z,53.20
2023-09-17T17:34:41.199Z,36.75
2023-09-17T17:37:07.791Z,51.00
2023-09-17T17:39:34.722Z,49.50
2023-09-17T17:42:01.476Z,31.50
2023-09-17T17:44:28.131Z,20.60
2023-09-17T17:46:54.974Z,58.50
2023-09-17T17:49:21.658Z,45.40
2023-09-17T17:51:48.627Z,29.00
2023-09-17T17:54:15.655Z,42.00
2023-09-17T17:56:42.372Z,44.25
2023-09-17T17:59:09.647Z,23.40
2023-09-17T18:01:38.864Z,58.40
2023-09-17T18:04:05.722Z,28.75
2023-09-17T18:06:32.553Z,54.80
2023-09-17T18:09:02.186Z,54.00
2023-09-17T18:11:28.892Z,32.50
2023-09-17T18:13:55.633Z,56.25
2023-09-17T18:16:22.442Z,30.75
2023-09-17T18:18:49.281Z,58.40
2023-09-17T18:21:17.538Z,59.80
2023-09-17T18:23:44.523Z,55.20
2023-09-17T18:26:11.279Z,57.75
2023-09-17T18:28:38.091Z,48.25
2023-09-17T18:31:05.722Z,40.50
2023-09-17T18:33:34.364Z,29.20
2023-09-17T18:36:01.550Z,42.25
2023-09-17T18:38:28.305Z,53.50
2023-09-17T18:40:55.131Z,53.00
2023-09-17T18:43:21.750Z,47.40
2023-09-17T18:45:48.416Z,41.75
2023-09-17T18:48:15.693Z,54.60
2023-09-17T18:50:43.103Z,46.67
2023-09-17T18:53:09.762Z,57.00
2023-09-17T18:55:37.353Z,29.40
2023-09-17T18:58:04.076Z,27.25
2023-09-17T19:00:31.188Z,31.00
2023-09-17T19:02:57.837Z,49.50
2023-09-17T19:05:26.269Z,21.60
2023-09-17T19:07:53.336Z,20.50
2023-09-17T19:10:20.513Z,19.50
2023-09-17T19:12:54.275Z,27.00
2023-09-17T19:15:21.215Z,21.00
2023-09-17T19:17:47.929Z,18.50
2023-09-17T19:20:14.979Z,18.20
2023-09-17T19:22:42.474Z,17.80
2023-09-17T19:25:09.446Z,19.80
2023-09-17T19:27:36.208Z,19.00
2023-09-17T19:30:02.815Z,16.50
2023-09-17T19:32:29.581Z,19.25
2023-09-17T19:34:58.387Z,27.60
2023-09-17T19:37:25.156Z,16.00
2023-09-17T19:39:51.896Z,18.00
2023-09-17T19:42:20.687Z,23.75
2023-09-17T19:44:47.566Z,20.80
2023-09-17T19:47:14.419Z,19.60
2023-09-17T19:49:43.272Z,16.50
2023-09-17T19:52:10.007Z,20.75
2023-09-17T19:54:36.972Z,18.40
2023-09-17T19:57:04.079Z,16.40
2023-09-17T19:59:31.086Z,19.00
2023-09-17T20:01:58.073Z,23.75
2023-09-17T20:04:25.122Z,16.50
2023-09-17T20:06:55.157Z,20.50
2023-09-17T20:09:22.285Z,14.00
2023-09-17T20:11:49.122Z,17.00
2023-09-17T20:14:15.969Z,17.00
2023-09-17T20:16:42.618Z,20.67
2023-09-17T20:19:09.266Z,18.00
2023-09-17T20:21:35.937Z,15.00
2023-09-17T20:24:02.743Z,14.00
2023-09-17T20:26:29.745Z,20.50
2023-09-17T20:28:56.601Z,15.25
2023-09-17T20:31:23.775Z,17.60
2023-09-17T20:33:50.328Z,14.40
2023-09-17T20:36:16.862Z,17.25
2023-09-17T20:38:46.741Z,17.00
2023-09-17T20:41:14.946Z,21.00
2023-09-17T20:43:42.160Z,19.20
2023-09-17T20:46:09.231Z,15.50
2023-09-17T20:48:36.031Z,17.50
2023-09-17T20:51:05.016Z,21.00
2023-09-17T20:53:33.405Z,16.67
2023-09-17T20:56:00.476Z,18.40
2023-09-17T20:58:28.653Z,20.00
2023-09-17T21:00:55.346Z,18.00
2023-09-17T21:03:22.549Z,19.40
2023-09-17T21:05:49.645Z,18.40
2023-09-17T21:08:17.073Z,12.75
2023-09-17T21:10:44.116Z,18.00
2023-09-17T21:13:12.332Z,14.50
2023-09-17T21:15:39.651Z,24.00
2023-09-17T21:18:07.405Z,16.40
2023-09-17T21:20:34.751Z,21.00
2023-09-17T21:23:01.686Z,16.50
2023-09-17T21:25:29.123Z,17.80
2023-09-17T21:27:55.810Z,19.00
2023-09-17T21:30:24.253Z,17.40
2023-09-17T21:32:51.022Z,17.60
2023-09-17T21:35:17.976Z,15.80
2023-09-17T21:37:44.857Z,15.00
2023-09-17T21:40:12.025Z,17.25
2023-09-17T21:42:39.744Z,16.00
2023-09-17T21:45:07.024Z,16.20
2023-09-17T21:47:33.897Z,20.00
2023-09-17T21:50:01.557Z,16.00
2023-09-17T21:52:29.784Z,18.50
2023-09-17T21:54:57.467Z,15.40
2023-09-17T21:57:24.329Z,11.60
2023-09-17T21:59:52.090Z,19.00
2023-09-17T22:02:19.064Z,16.00
2023-09-17T22:04:46.006Z,17.60
2023-09-17T22:07:13.052Z,19.00
2023-09-17T22:09:40.399Z,20.00
2023-09-17T22:12:12.178Z,17.00
2023-09-17T22:14:39.283Z,15.80
2023-09-17T22:17:06.577Z,20.75
2023-09-17T22:19:34.268Z,14.00
2023-09-17T22:22:01.104Z,15.25
2023-09-17T22:24:28.201Z,17.00
2023-09-17T22:27:17.281Z,17.60
2023-09-17T22:29:45.917Z,15.80
2023-09-17T22:32:12.818Z,14.00
2023-09-17T22:34:39.584Z,13.40
2023-09-17T22:37:06.262Z,13.00
2023-09-17T22:39:36.490Z,18.80
2023-09-17T22:42:03.185Z,16.50
2023-09-17T22:44:29.844Z,20.00
2023-09-17T22:46:57.484Z,11.80
2023-09-17T22:49:24.491Z,21.20
2023-09-17T22:51:51.132Z,16.60
2023-09-17T22:54:17.945Z,22.60
2023-09-17T22:56:44.718Z,18.20
2023-09-17T22:59:11.399Z,23.00
2023-09-17T23:01:40.411Z,17.40
2023-09-17T23:04:08.314Z,15.40
2023-09-17T23:06:36.060Z,12.60
2023-09-17T23:09:05.136Z,18.00
2023-09-17T23:11:32.745Z,16.50
2023-09-17T23:14:00.543Z,18.50
2023-09-17T23:16:27.512Z,20.20
2023-09-17T23:18:55.569Z,17.00
2023-09-17T23:21:24.850Z,17.00
2023-09-17T23:23:54.502Z,15.75
2023-09-17T23:26:25.285Z,14.00
2023-09-17T23:28:52.515Z,17.00
2023-09-17T23:31:19.559Z,23.60
2023-09-17T23:33:51.011Z,19.00
2023-09-17T23:36:17.810Z,24.33
2023-09-17T23:38:44.720Z,17.40
2023-09-17T23:41:11.802Z,19.00
2023-09-17T23:43:39.028Z,21.00
2023-09-17T23:46:05.784Z,16.80
2023-09-17T23:48:32.653Z,14.40
2023-09-17T23:50:59.375Z,14.50
2023-09-17T23:53:26.221Z,22.00
2023-09-17T23:55:53.539Z,17.40
2023-09-17T23:58:20.686Z,16.25
